sensor_id;sensor_type;location;lat;lon;timestamp;P1;durP1;ratioP1;P2;durP2;ratioP2
8048;SDS011;20935;42.660;23.342;2022-12-29T00:01:37;51.43;;;37.77;;
8048;SDS011;20935;42.660;23.342;2022-12-29T00:04:03;55.67;;;39.53;;
8048;SDS011;20935;42.660;23.342;2022-12-29T00:06:30;48.63;;;35.47;;
8048;SDS011;20935;42.660;23.342;2022-12-29T00:08:58;43.83;;;33.50;;
8048;SDS011;20935;42.660;23.342;2022-12-29T00:11:24;48.17;;;33.90;;
8048;SDS011;20935;42.660;23.342;2022-12-29T00:13:51;46.60;;;33.87;;
8048;SDS011;20935;42.660;23.342;2022-12-29T00:16:37;45.87;;;33.73;;
8048;SDS011;20935;42.660;23.342;2022-12-29T00:19:05;46.13;;;34.37;;
8048;SDS011;20935;42.660;23.342;2022-12-29T00:21:31;46.30;;;35.03;;
8048;SDS011;20935;42.660;23.342;2022-12-29T00:29:50;47.97;;;33.70;;
8048;SDS011;20935;42.660;23.342;2022-12-29T00:32:34;44.97;;;33.97;;
8048;SDS011;20935;42.660;23.342;2022-12-29T00:37:46;41.00;;;30.47;;
8048;SDS011;20935;42.660;23.342;2022-12-29T00:40:31;40.33;;;29.90;;
8048;SDS011;20935;42.660;23.342;2022-12-29T00:43:16;44.30;;;31.87;;
8048;SDS011;20935;42.660;23.342;2022-12-29T00:46:00;41.93;;;31.20;;
8048;SDS011;20935;42.660;23.342;2022-12-29T00:48:25;46.43;;;32.10;;
8048;SDS011;20935;42.660;23.342;2022-12-29T00:51:10;39.30;;;30.73;;
8048;SDS011;20935;42.660;23.342;2022-12-29T00:53:35;38.27;;;30.00;;
8048;SDS011;20935;42.660;23.342;2022-12-29T00:56:03;42.37;;;32.20;;
8048;SDS011;20935;42.660;23.342;2022-12-29T00:58:31;41.30;;;31.67;;
8048;SDS011;20935;42.660;23.342;2022-12-29T01:03:34;38.13;;;30.40;;
8048;SDS011;20935;42.660;23.342;2022-12-29T01:06:01;41.97;;;32.07;;
8048;SDS011;20935;42.660;23.342;2022-12-29T01:08:28;42.40;;;31.20;;
8048;SDS011;20935;42.660;23.342;2022-12-29T01:11:04;40.57;;;31.13;;
8048;SDS011;20935;42.660;23.342;2022-12-29T01:13:32;39.67;;;29.83;;
8048;SDS011;20935;42.660;23.342;2022-12-29T01:15:57;39.17;;;29.27;;
8048;SDS011;20935;42.660;23.342;2022-12-29T01:18:24;42.43;;;30.73;;
8048;SDS011;20935;42.660;23.342;2022-12-29T01:20:50;38.87;;;29.17;;
8048;SDS011;20935;42.660;23.342;2022-12-29T01:23:15;37.70;;;28.43;;
8048;SDS011;20935;42.660;23.342;2022-12-29T01:25:41;38.23;;;29.03;;
8048;SDS011;20935;42.660;23.342;2022-12-29T01:28:07;36.57;;;26.93;;
8048;SDS011;20935;42.660;23.342;2022-12-29T01:30:35;40.97;;;27.83;;
8048;SDS011;20935;42.660;23.342;2022-12-29T01:33:01;39.50;;;27.90;;
8048;SDS011;20935;42.660;23.342;2022-12-29T01:35:26;38.77;;;27.40;;
8048;SDS011;20935;42.660;23.342;2022-12-29T01:37:52;35.53;;;25.37;;
8048;SDS011;20935;42.660;23.342;2022-12-29T01:40:18;34.57;;;25.53;;
8048;SDS011;20935;42.660;23.342;2022-12-29T01:42:43;35.40;;;26.83;;
8048;SDS011;20935;42.660;23.342;2022-12-29T01:45:10;32.80;;;25.23;;
8048;SDS011;20935;42.660;23.342;2022-12-29T01:47:41;37.03;;;25.43;;
8048;SDS011;20935;42.660;23.342;2022-12-29T01:50:21;32.40;;;24.90;;
8048;SDS011;20935;42.660;23.342;2022-12-29T01:53:03;30.63;;;24.60;;
8048;SDS011;20935;42.660;23.342;2022-12-29T01:55:34;32.40;;;24.50;;
8048;SDS011;20935;42.660;23.342;2022-12-29T01:58:05;38.40;;;25.73;;
8048;SDS011;20935;42.660;23.342;2022-12-29T02:00:31;32.50;;;24.03;;
8048;SDS011;20935;42.660;23.342;2022-12-29T02:02:57;34.90;;;25.27;;
8048;SDS011;20935;42.660;23.342;2022-12-29T02:05:33;32.90;;;25.17;;
8048;SDS011;20935;42.660;23.342;2022-12-29T02:08:01;32.80;;;25.03;;
8048;SDS011;20935;42.660;23.342;2022-12-29T02:10:27;33.70;;;24.83;;
8048;SDS011;20935;42.660;23.342;2022-12-29T02:12:57;29.10;;;23.70;;
8048;SDS011;20935;42.660;23.342;2022-12-29T02:15:45;31.30;;;23.87;;
8048;SDS011;20935;42.660;23.342;2022-12-29T02:24:31;28.60;;;21.03;;
8048;SDS011;20935;42.660;23.342;2022-12-29T02:32:43;23.60;;;19.47;;
8048;SDS011;20935;42.660;23.342;2022-12-29T02:35:23;23.67;;;19.60;;
8048;SDS011;20935;42.660;23.342;2022-12-29T02:40:37;28.53;;;21.97;;
8048;SDS011;20935;42.660;23.342;2022-12-29T02:45:49;30.17;;;22.40;;
8048;SDS011;20935;42.660;23.342;2022-12-29T02:51:09;29.33;;;21.73;;
8048;SDS011;20935;42.660;23.342;2022-12-29T02:53:40;26.70;;;20.53;;
8048;SDS011;20935;42.660;23.342;2022-12-29T02:56:24;26.83;;;21.43;;
8048;SDS011;20935;42.660;23.342;2022-12-29T02:58:52;29.27;;;22.43;;
8048;SDS011;20935;42.660;23.342;2022-12-29T03:01:37;28.13;;;22.77;;
8048;SDS011;20935;42.660;23.342;2022-12-29T03:16:10;25.93;;;20.97;;
8048;SDS011;20935;42.660;23.342;2022-12-29T03:22:05;29.90;;;23.23;;
8048;SDS011;20935;42.660;23.342;2022-12-29T03:24:32;28.30;;;22.10;;
8048;SDS011;20935;42.660;23.342;2022-12-29T03:27:05;27.50;;;22.17;;
8048;SDS011;20935;42.660;23.342;2022-12-29T03:29:33;28.47;;;22.80;;
8048;SDS011;20935;42.660;23.342;2022-12-29T03:32:07;29.37;;;22.47;;
8048;SDS011;20935;42.660;23.342;2022-12-29T03:34:36;27.30;;;22.47;;
8048;SDS011;20935;42.660;23.342;2022-12-29T03:37:08;32.40;;;23.60;;
8048;SDS011;20935;42.660;23.342;2022-12-29T03:39:37;30.47;;;22.40;;
8048;SDS011;20935;42.660;23.342;2022-12-29T03:42:05;26.57;;;22.20;;
8048;SDS011;20935;42.660;23.342;2022-12-29T03:44:38;31.03;;;22.07;;
8048;SDS011;20935;42.660;23.342;2022-12-29T03:47:06;27.67;;;21.73;;
8048;SDS011;20935;42.660;23.342;2022-12-29T03:49:32;28.43;;;23.60;;
8048;SDS011;20935;42.660;23.342;2022-12-29T03:52:00;29.20;;;22.17;;
8048;SDS011;20935;42.660;23.342;2022-12-29T03:54:25;31.77;;;23.13;;
8048;SDS011;20935;42.660;23.342;2022-12-29T03:56:51;28.07;;;22.40;;
8048;SDS011;20935;42.660;23.342;2022-12-29T03:59:16;29.17;;;23.27;;
8048;SDS011;20935;42.660;23.342;2022-12-29T04:01:44;28.70;;;22.63;;
8048;SDS011;20935;42.660;23.342;2022-12-29T04:04:11;31.33;;;22.43;;
8048;SDS011;20935;42.660;23.342;2022-12-29T04:06:39;32.60;;;24.57;;
8048;SDS011;20935;42.660;23.342;2022-12-29T04:09:05;33.47;;;24.17;;
8048;SDS011;20935;42.660;23.342;2022-12-29T04:11:33;32.00;;;21.87;;
8048;SDS011;20935;42.660;23.342;2022-12-29T04:13:58;29.60;;;22.57;;
8048;SDS011;20935;42.660;23.342;2022-12-29T04:16:26;27.50;;;22.43;;
8048;SDS011;20935;42.660;23.342;2022-12-29T04:18:52;28.63;;;22.17;;
8048;SDS011;20935;42.660;23.342;2022-12-29T04:21:17;29.43;;;22.10;;
8048;SDS011;20935;42.660;23.342;2022-12-29T04:23:43;26.87;;;21.43;;
8048;SDS011;20935;42.660;23.342;2022-12-29T04:26:09;28.80;;;21.60;;
8048;SDS011;20935;42.660;23.342;2022-12-29T04:28:35;31.77;;;23.37;;
8048;SDS011;20935;42.660;23.342;2022-12-29T04:31:02;32.73;;;23.00;;
8048;SDS011;20935;42.660;23.342;2022-12-29T04:33:30;29.33;;;22.10;;
8048;SDS011;20935;42.660;23.342;2022-12-29T04:35:56;32.27;;;22.67;;
8048;SDS011;20935;42.660;23.342;2022-12-29T04:38:23;28.33;;;22.60;;
8048;SDS011;20935;42.660;23.342;2022-12-29T04:40:49;33.47;;;23.50;;
8048;SDS011;20935;42.660;23.342;2022-12-29T04:43:15;29.23;;;22.83;;
8048;SDS011;20935;42.660;23.342;2022-12-29T04:45:46;29.93;;;22.30;;
8048;SDS011;20935;42.660;23.342;2022-12-29T04:48:12;32.47;;;23.97;;
8048;SDS011;20935;42.660;23.342;2022-12-29T04:50:38;31.43;;;22.83;;
8048;SDS011;20935;42.660;23.342;2022-12-29T04:53:05;33.67;;;24.10;;
8048;SDS011;20935;42.660;23.342;2022-12-29T04:55:30;34.80;;;22.90;;
8048;SDS011;20935;42.660;23.342;2022-12-29T04:57:56;30.80;;;23.23;;
8048;SDS011;20935;42.660;23.342;2022-12-29T05:00:21;37.17;;;26.20;;
8048;SDS011;20935;42.660;23.342;2022-12-29T05:02:47;35.93;;;24.37;;
8048;SDS011;20935;42.660;23.342;2022-12-29T05:05:13;31.40;;;22.10;;
8048;SDS011;20935;42.660;23.342;2022-12-29T05:07:38;32.30;;;23.73;;
8048;SDS011;20935;42.660;23.342;2022-12-29T05:10:04;34.73;;;22.17;;
8048;SDS011;20935;42.660;23.342;2022-12-29T05:12:30;31.90;;;22.37;;
8048;SDS011;20935;42.660;23.342;2022-12-29T05:14:59;33.30;;;22.13;;
8048;SDS011;20935;42.660;23.342;2022-12-29T05:20:40;28.90;;;21.70;;
8048;SDS011;20935;42.660;23.342;2022-12-29T05:23:05;29.40;;;20.73;;
8048;SDS011;20935;42.660;23.342;2022-12-29T13:08:42;31.57;;;26.53;;
8048;SDS011;20935;42.660;23.342;2022-12-29T13:19:27;21.77;;;19.47;;
8048;SDS011;20935;42.660;23.342;2022-12-29T13:26:45;25.77;;;22.00;;
8048;SDS011;20935;42.660;23.342;2022-12-29T13:29:20;28.43;;;22.47;;
8048;SDS011;20935;42.660;23.342;2022-12-29T13:32:17;27.00;;;23.17;;
8048;SDS011;20935;42.660;23.342;2022-12-29T13:34:46;30.50;;;23.93;;
8048;SDS011;20935;42.660;23.342;2022-12-29T13:37:17;31.47;;;25.20;;
8048;SDS011;20935;42.660;23.342;2022-12-29T13:39:49;30.47;;;23.63;;
8048;SDS011;20935;42.660;23.342;2022-12-29T13:42:19;30.63;;;25.60;;
8048;SDS011;20935;42.660;23.342;2022-12-29T13:44:52;33.57;;;25.13;;
8048;SDS011;20935;42.660;23.342;2022-12-29T13:47:30;33.90;;;25.53;;
8048;SDS011;20935;42.660;23.342;2022-12-29T13:50:02;34.47;;;24.87;;
8048;SDS011;20935;42.660;23.342;2022-12-29T14:08:36;33.10;;;24.57;;
8048;SDS011;20935;42.660;23.342;2022-12-29T14:11:10;36.37;;;25.83;;
8048;SDS011;20935;42.660;23.342;2022-12-29T14:13:39;35.87;;;25.23;;
8048;SDS011;20935;42.660;23.342;2022-12-29T14:16:08;39.77;;;27.27;;
8048;SDS011;20935;42.660;23.342;2022-12-29T14:18:49;38.37;;;26.07;;
8048;SDS011;20935;42.660;23.342;2022-12-29T14:23:44;34.10;;;25.57;;
8048;SDS011;20935;42.660;23.342;2022-12-29T14:28:38;33.73;;;25.07;;
8048;SDS011;20935;42.660;23.342;2022-12-29T14:33:40;29.83;;;23.33;;
8048;SDS011;20935;42.660;23.342;2022-12-29T14:36:25;30.03;;;24.67;;
8048;SDS011;20935;42.660;23.342;2022-12-29T14:38:59;35.27;;;24.63;;
8048;SDS011;20935;42.660;23.342;2022-12-29T14:46:49;31.00;;;22.83;;
8048;SDS011;20935;42.660;23.342;2022-12-29T14:49:23;31.37;;;23.27;;
8048;SDS011;20935;42.660;23.342;2022-12-29T14:51:52;33.20;;;22.50;;
8048;SDS011;20935;42.660;23.342;2022-12-29T14:57:07;31.17;;;22.33;;
8048;SDS011;20935;42.660;23.342;2022-12-29T14:59:41;44.00;;;31.00;;
8048;SDS011;20935;42.660;23.342;2022-12-29T15:02:22;31.40;;;23.57;;
8048;SDS011;20935;42.660;23.342;2022-12-29T15:04:51;35.87;;;28.13;;
8048;SDS011;20935;42.660;23.342;2022-12-29T15:07:21;32.47;;;22.07;;
8048;SDS011;20935;42.660;23.342;2022-12-29T15:09:53;33.70;;;23.30;;
8048;SDS011;20935;42.660;23.342;2022-12-29T15:12:37;35.33;;;23.00;;
8048;SDS011;20935;42.660;23.342;2022-12-29T15:15:40;36.73;;;23.80;;
8048;SDS011;20935;42.660;23.342;2022-12-29T15:18:22;32.53;;;23.67;;
8048;SDS011;20935;42.660;23.342;2022-12-29T15:20:50;36.50;;;24.03;;
8048;SDS011;20935;42.660;23.342;2022-12-29T15:23:19;33.67;;;25.00;;
8048;SDS011;20935;42.660;23.342;2022-12-29T15:25:46;31.43;;;23.30;;
8048;SDS011;20935;42.660;23.342;2022-12-29T15:28:15;34.27;;;23.90;;
8048;SDS011;20935;42.660;23.342;2022-12-29T15:30:52;36.53;;;22.70;;
8048;SDS011;20935;42.660;23.342;2022-12-29T15:33:28;32.13;;;23.57;;
8048;SDS011;20935;42.660;23.342;2022-12-29T15:35:55;37.97;;;26.87;;
8048;SDS011;20935;42.660;23.342;2022-12-29T15:38:28;44.27;;;27.70;;
8048;SDS011;20935;42.660;23.342;2022-12-29T15:41:01;45.37;;;29.37;;
8048;SDS011;20935;42.660;23.342;2022-12-29T15:43:49;40.00;;;27.93;;
8048;SDS011;20935;42.660;23.342;2022-12-29T15:46:17;33.40;;;24.77;;
8048;SDS011;20935;42.660;23.342;2022-12-29T15:48:45;39.37;;;26.73;;
8048;SDS011;20935;42.660;23.342;2022-12-29T15:51:22;35.07;;;25.90;;
8048;SDS011;20935;42.660;23.342;2022-12-29T15:53:50;33.07;;;22.53;;
8048;SDS011;20935;42.660;23.342;2022-12-29T15:56:17;42.47;;;26.47;;
8048;SDS011;20935;42.660;23.342;2022-12-29T15:58:47;41.00;;;28.97;;
8048;SDS011;20935;42.660;23.342;2022-12-29T16:01:27;43.63;;;28.80;;
8048;SDS011;20935;42.660;23.342;2022-12-29T16:03:57;37.63;;;25.80;;
8048;SDS011;20935;42.660;23.342;2022-12-29T16:06:34;38.10;;;26.00;;
8048;SDS011;20935;42.660;23.342;2022-12-29T16:09:17;51.97;;;33.90;;
8048;SDS011;20935;42.660;23.342;2022-12-29T16:11:44;49.57;;;38.60;;
8048;SDS011;20935;42.660;23.342;2022-12-29T16:14:24;46.73;;;32.03;;
8048;SDS011;20935;42.660;23.342;2022-12-29T16:16:52;50.67;;;34.23;;
8048;SDS011;20935;42.660;23.342;2022-12-29T16:19:29;61.13;;;36.10;;
8048;SDS011;20935;42.660;23.342;2022-12-29T16:21:58;52.50;;;32.87;;
8048;SDS011;20935;42.660;23.342;2022-12-29T16:24:26;54.27;;;35.97;;
8048;SDS011;20935;42.660;23.342;2022-12-29T16:27:02;60.73;;;36.17;;
8048;SDS011;20935;42.660;23.342;2022-12-29T16:29:33;51.57;;;35.20;;
8048;SDS011;20935;42.660;23.342;2022-12-29T16:32:00;59.43;;;41.63;;
8048;SDS011;20935;42.660;23.342;2022-12-29T16:37:35;53.80;;;33.57;;
8048;SDS011;20935;42.660;23.342;2022-12-29T16:43:01;46.90;;;31.57;;
8048;SDS011;20935;42.660;23.342;2022-12-29T16:50:50;46.40;;;31.70;;
8048;SDS011;20935;42.660;23.342;2022-12-29T16:53:33;48.20;;;33.53;;
8048;SDS011;20935;42.660;23.342;2022-12-29T16:56:14;60.70;;;38.23;;
8048;SDS011;20935;42.660;23.342;2022-12-29T16:58:47;88.77;;;79.33;;
8048;SDS011;20935;42.660;23.342;2022-12-29T17:01:15;70.33;;;51.27;;
8048;SDS011;20935;42.660;23.342;2022-12-29T17:03:46;57.67;;;42.37;;
8048;SDS011;20935;42.660;23.342;2022-12-29T17:27:05;33.90;;;27.57;;
8048;SDS011;20935;42.660;23.342;2022-12-29T17:29:32;32.03;;;26.63;;
8048;SDS011;20935;42.660;23.342;2022-12-29T17:32:02;32.13;;;27.97;;
8048;SDS011;20935;42.660;23.342;2022-12-29T17:34:29;35.37;;;28.97;;
8048;SDS011;20935;42.660;23.342;2022-12-29T17:36:56;34.87;;;28.83;;
8048;SDS011;20935;42.660;23.342;2022-12-29T17:41:36;34.95;;;29.20;;
